< < Back
Terminal Aerodrome Forecast


Current Version              Previous Versions:   1  2  3  4  5  6  7  8  9  

Terminal Aerodrome Forecast

214
FTUS44 KBMX 201100
TAFBHM
TAF
KBHM 201134Z 2012/2112 23003KT P6SM SCT250
     FM201500 28007KT P6SM SCT040
     FM210100 VRB03KT P6SM SKC=

Latest METAR

710
SAUS70 KWBC 211400 RRL
MTRBHM
METAR KBHM 211353Z 25004KT 10SM FEW250 28/22 A3017 RMK AO2 SLP205
T02830222


USA.gov is the U.S. government's official web portal to all federal, state and local government web resources and services.